sensor_id;sensor_type;location;lat;lon;timestamp;temperature;humidity
16118;DHT22;8163;50.118;5.342;2023-07-31T00:00:44;16.60;1.30
16118;DHT22;8163;50.118;5.342;2023-07-31T00:03:12;16.50;1.00
16118;DHT22;8163;50.118;5.342;2023-07-31T00:05:38;16.50;2.30
16118;DHT22;8163;50.118;5.342;2023-07-31T00:08:05;16.50;1.00
16118;DHT22;8163;50.118;5.342;2023-07-31T00:10:32;16.50;1.00
16118;DHT22;8163;50.118;5.342;2023-07-31T00:13:01;16.40;1.00
16118;DHT22;8163;50.118;5.342;2023-07-31T00:15:28;16.40;1.00
16118;DHT22;8163;50.118;5.342;2023-07-31T00:17:55;16.40;2.80
16118;DHT22;8163;50.118;5.342;2023-07-31T00:20:22;16.40;1.00
16118;DHT22;8163;50.118;5.342;2023-07-31T00:22:49;16.40;1.10
16118;DHT22;8163;50.118;5.342;2023-07-31T00:25:16;16.40;1.90
16118;DHT22;8163;50.118;5.342;2023-07-31T00:27:42;16.40;2.10
16118;DHT22;8163;50.118;5.342;2023-07-31T00:30:12;16.40;3.50
16118;DHT22;8163;50.118;5.342;2023-07-31T00:32:39;16.30;1.50
16118;DHT22;8163;50.118;5.342;2023-07-31T00:35:06;16.40;2.30
16118;DHT22;8163;50.118;5.342;2023-07-31T00:37:33;16.40;2.20
16118;DHT22;8163;50.118;5.342;2023-07-31T00:40:00;16.30;2.90
16118;DHT22;8163;50.118;5.342;2023-07-31T00:42:29;16.30;2.30
16118;DHT22;8163;50.118;5.342;2023-07-31T00:44:56;16.30;3.00
16118;DHT22;8163;50.118;5.342;2023-07-31T00:47:24;16.30;3.60
16118;DHT22;8163;50.118;5.342;2023-07-31T00:49:51;16.20;3.80
16118;DHT22;8163;50.118;5.342;2023-07-31T00:52:19;16.30;5.90
16118;DHT22;8163;50.118;5.342;2023-07-31T00:54:46;16.30;5.50
16118;DHT22;8163;50.118;5.342;2023-07-31T00:57:13;16.30;8.00
16118;DHT22;8163;50.118;5.342;2023-07-31T00:59:40;16.30;7.20
16118;DHT22;8163;50.118;5.342;2023-07-31T01:02:07;16.30;7.00
16118;DHT22;8163;50.118;5.342;2023-07-31T01:04:35;16.30;7.70
16118;DHT22;8163;50.118;5.342;2023-07-31T01:07:11;16.30;8.20
16118;DHT22;8163;50.118;5.342;2023-07-31T01:09:44;16.30;11.10
16118;DHT22;8163;50.118;5.342;2023-07-31T01:12:15;16.20;9.80
16118;DHT22;8163;50.118;5.342;2023-07-31T01:14:51;16.20;10.10
16118;DHT22;8163;50.118;5.342;2023-07-31T01:17:18;16.30;10.20
16118;DHT22;8163;50.118;5.342;2023-07-31T01:19:47;16.30;10.80
16118;DHT22;8163;50.118;5.342;2023-07-31T01:22:26;16.30;10.90
16118;DHT22;8163;50.118;5.342;2023-07-31T01:25:06;16.20;11.90
16118;DHT22;8163;50.118;5.342;2023-07-31T01:27:47;16.20;11.50
16118;DHT22;8163;50.118;5.342;2023-07-31T01:30:16;16.20;12.00
16118;DHT22;8163;50.118;5.342;2023-07-31T01:32:47;16.20;10.80
16118;DHT22;8163;50.118;5.342;2023-07-31T01:35:15;16.20;11.00
16118;DHT22;8163;50.118;5.342;2023-07-31T01:37:42;16.20;14.10
16118;DHT22;8163;50.118;5.342;2023-07-31T01:40:09;16.20;15.70
16118;DHT22;8163;50.118;5.342;2023-07-31T01:42:36;16.20;13.50
16118;DHT22;8163;50.118;5.342;2023-07-31T01:45:05;16.20;13.90
16118;DHT22;8163;50.118;5.342;2023-07-31T01:47:32;16.20;14.10
16118;DHT22;8163;50.118;5.342;2023-07-31T01:49:59;16.20;15.00
16118;DHT22;8163;50.118;5.342;2023-07-31T01:52:26;16.20;15.00
16118;DHT22;8163;50.118;5.342;2023-07-31T01:54:53;16.20;15.30
16118;DHT22;8163;50.118;5.342;2023-07-31T01:57:20;16.20;16.10
16118;DHT22;8163;50.118;5.342;2023-07-31T01:59:47;16.20;16.30
16118;DHT22;8163;50.118;5.342;2023-07-31T02:02:16;16.20;16.70
16118;DHT22;8163;50.118;5.342;2023-07-31T02:04:42;16.20;16.80
16118;DHT22;8163;50.118;5.342;2023-07-31T02:07:09;16.20;16.80
16118;DHT22;8163;50.118;5.342;2023-07-31T02:09:36;16.20;17.20
16118;DHT22;8163;50.118;5.342;2023-07-31T02:12:04;16.20;18.20
16118;DHT22;8163;50.118;5.342;2023-07-31T02:14:31;16.10;18.60
16118;DHT22;8163;50.118;5.342;2023-07-31T02:16:58;16.20;19.10
16118;DHT22;8163;50.118;5.342;2023-07-31T02:19:26;16.20;19.30
16118;DHT22;8163;50.118;5.342;2023-07-31T02:21:53;16.20;20.40
16118;DHT22;8163;50.118;5.342;2023-07-31T02:24:19;16.10;20.90
16118;DHT22;8163;50.118;5.342;2023-07-31T02:26:46;16.20;21.40
16118;DHT22;8163;50.118;5.342;2023-07-31T02:29:13;16.20;22.00
16118;DHT22;8163;50.118;5.342;2023-07-31T02:31:40;16.10;21.50
16118;DHT22;8163;50.118;5.342;2023-07-31T02:34:07;16.10;25.10
16118;DHT22;8163;50.118;5.342;2023-07-31T02:36:35;16.10;25.30
16118;DHT22;8163;50.118;5.342;2023-07-31T02:39:02;16.10;25.70
16118;DHT22;8163;50.118;5.342;2023-07-31T02:41:29;16.10;25.70
16118;DHT22;8163;50.118;5.342;2023-07-31T02:43:56;16.10;26.40
16118;DHT22;8163;50.118;5.342;2023-07-31T02:46:23;16.10;26.60
16118;DHT22;8163;50.118;5.342;2023-07-31T02:48:50;16.10;27.00
16118;DHT22;8163;50.118;5.342;2023-07-31T02:51:17;16.10;23.60
16118;DHT22;8163;50.118;5.342;2023-07-31T02:53:47;16.10;26.60
16118;DHT22;8163;50.118;5.342;2023-07-31T02:56:15;16.10;25.10
16118;DHT22;8163;50.118;5.342;2023-07-31T02:58:42;16.10;25.20
16118;DHT22;8163;50.118;5.342;2023-07-31T03:01:08;16.10;24.00
16118;DHT22;8163;50.118;5.342;2023-07-31T03:03:35;16.10;23.30
16118;DHT22;8163;50.118;5.342;2023-07-31T03:06:02;16.10;23.60
16118;DHT22;8163;50.118;5.342;2023-07-31T03:08:29;16.10;24.50
16118;DHT22;8163;50.118;5.342;2023-07-31T03:10:58;16.10;26.20
16118;DHT22;8163;50.118;5.342;2023-07-31T03:13:25;16.10;26.30
16118;DHT22;8163;50.118;5.342;2023-07-31T03:15:52;16.10;26.50
16118;DHT22;8163;50.118;5.342;2023-07-31T03:18:18;16.10;26.70
16118;DHT22;8163;50.118;5.342;2023-07-31T03:20:45;16.10;26.70
16118;DHT22;8163;50.118;5.342;2023-07-31T03:23:12;16.00;26.60
16118;DHT22;8163;50.118;5.342;2023-07-31T03:25:41;16.10;29.60
16118;DHT22;8163;50.118;5.342;2023-07-31T03:28:09;16.10;29.30
16118;DHT22;8163;50.118;5.342;2023-07-31T03:30:36;16.00;29.20
16118;DHT22;8163;50.118;5.342;2023-07-31T03:33:03;16.00;29.90
16118;DHT22;8163;50.118;5.342;2023-07-31T03:35:30;16.00;30.30
16118;DHT22;8163;50.118;5.342;2023-07-31T03:37:57;16.00;29.90
16118;DHT22;8163;50.118;5.342;2023-07-31T03:40:24;16.00;31.20
16118;DHT22;8163;50.118;5.342;2023-07-31T03:42:51;16.10;32.80
16118;DHT22;8163;50.118;5.342;2023-07-31T03:45:19;16.00;33.60
16118;DHT22;8163;50.118;5.342;2023-07-31T03:47:46;16.00;31.50
16118;DHT22;8163;50.118;5.342;2023-07-31T03:50:13;16.00;31.20
16118;DHT22;8163;50.118;5.342;2023-07-31T03:52:41;16.00;31.10
16118;DHT22;8163;50.118;5.342;2023-07-31T03:55:08;16.00;31.80
16118;DHT22;8163;50.118;5.342;2023-07-31T03:57:35;16.00;33.30
16118;DHT22;8163;50.118;5.342;2023-07-31T04:00:02;16.00;32.50
16118;DHT22;8163;50.118;5.342;2023-07-31T04:02:30;16.00;33.90
16118;DHT22;8163;50.118;5.342;2023-07-31T04:04:57;16.00;34.70
16118;DHT22;8163;50.118;5.342;2023-07-31T04:07:24;16.00;35.20
16118;DHT22;8163;50.118;5.342;2023-07-31T04:09:51;16.00;35.50
16118;DHT22;8163;50.118;5.342;2023-07-31T04:12:18;16.00;35.20
16118;DHT22;8163;50.118;5.342;2023-07-31T04:14:45;15.90;35.30
16118;DHT22;8163;50.118;5.342;2023-07-31T04:17:12;16.00;35.40
16118;DHT22;8163;50.118;5.342;2023-07-31T04:19:40;16.00;35.40
16118;DHT22;8163;50.118;5.342;2023-07-31T04:22:07;15.90;35.40
16118;DHT22;8163;50.118;5.342;2023-07-31T04:24:34;16.00;36.00
16118;DHT22;8163;50.118;5.342;2023-07-31T04:27:01;15.90;35.20
16118;DHT22;8163;50.118;5.342;2023-07-31T04:29:28;16.00;36.30
16118;DHT22;8163;50.118;5.342;2023-07-31T04:31:55;16.00;37.10
16118;DHT22;8163;50.118;5.342;2023-07-31T04:34:22;16.00;36.60
16118;DHT22;8163;50.118;5.342;2023-07-31T04:36:50;16.00;37.30
16118;DHT22;8163;50.118;5.342;2023-07-31T04:39:17;16.00;37.20
16118;DHT22;8163;50.118;5.342;2023-07-31T04:41:44;16.00;38.00
16118;DHT22;8163;50.118;5.342;2023-07-31T04:44:11;16.00;37.60
16118;DHT22;8163;50.118;5.342;2023-07-31T04:46:38;16.00;39.30
16118;DHT22;8163;50.118;5.342;2023-07-31T04:49:05;16.00;40.10
16118;DHT22;8163;50.118;5.342;2023-07-31T04:51:31;16.00;42.60
16118;DHT22;8163;50.118;5.342;2023-07-31T04:54:00;16.00;42.00
16118;DHT22;8163;50.118;5.342;2023-07-31T04:56:27;16.10;42.20
16118;DHT22;8163;50.118;5.342;2023-07-31T04:58:54;16.10;42.30
16118;DHT22;8163;50.118;5.342;2023-07-31T05:01:21;16.10;42.60
16118;DHT22;8163;50.118;5.342;2023-07-31T05:03:49;16.10;42.70
16118;DHT22;8163;50.118;5.342;2023-07-31T05:06:16;16.10;43.60
16118;DHT22;8163;50.118;5.342;2023-07-31T05:08:43;16.10;43.40
16118;DHT22;8163;50.118;5.342;2023-07-31T05:11:12;16.10;44.40
16118;DHT22;8163;50.118;5.342;2023-07-31T05:13:39;16.20;47.40
16118;DHT22;8163;50.118;5.342;2023-07-31T05:16:07;16.30;48.20
16118;DHT22;8163;50.118;5.342;2023-07-31T05:18:34;16.30;50.00
16118;DHT22;8163;50.118;5.342;2023-07-31T05:21:01;16.30;51.20
16118;DHT22;8163;50.118;5.342;2023-07-31T05:23:28;16.30;52.10
16118;DHT22;8163;50.118;5.342;2023-07-31T05:25:55;16.30;51.50
16118;DHT22;8163;50.118;5.342;2023-07-31T05:28:23;16.30;51.40
16118;DHT22;8163;50.118;5.342;2023-07-31T05:30:50;16.30;53.60
16118;DHT22;8163;50.118;5.342;2023-07-31T05:33:17;16.30;52.90
16118;DHT22;8163;50.118;5.342;2023-07-31T05:35:44;16.30;54.50
16118;DHT22;8163;50.118;5.342;2023-07-31T05:38:10;16.30;57.70
16118;DHT22;8163;50.118;5.342;2023-07-31T05:40:37;16.30;57.60
16118;DHT22;8163;50.118;5.342;2023-07-31T05:43:04;16.30;58.70
16118;DHT22;8163;50.118;5.342;2023-07-31T05:45:35;16.40;58.20
16118;DHT22;8163;50.118;5.342;2023-07-31T05:48:05;16.30;59.30
16118;DHT22;8163;50.118;5.342;2023-07-31T05:50:32;16.30;58.80
16118;DHT22;8163;50.118;5.342;2023-07-31T05:52:59;16.30;58.30
16118;DHT22;8163;50.118;5.342;2023-07-31T05:55:26;16.30;58.00
16118;DHT22;8163;50.118;5.342;2023-07-31T05:57:53;16.30;57.40
16118;DHT22;8163;50.118;5.342;2023-07-31T06:00:21;16.30;57.10
16118;DHT22;8163;50.118;5.342;2023-07-31T06:02:49;16.30;58.00
16118;DHT22;8163;50.118;5.342;2023-07-31T06:05:16;16.30;57.40
16118;DHT22;8163;50.118;5.342;2023-07-31T06:07:43;16.20;55.40
16118;DHT22;8163;50.118;5.342;2023-07-31T06:10:10;16.20;55.20
16118;DHT22;8163;50.118;5.342;2023-07-31T06:12:37;16.20;55.40
16118;DHT22;8163;50.118;5.342;2023-07-31T06:15:05;16.20;57.10
16118;DHT22;8163;50.118;5.342;2023-07-31T06:17:32;16.30;57.10
16118;DHT22;8163;50.118;5.342;2023-07-31T06:20:01;16.30;58.90
16118;DHT22;8163;50.118;5.342;2023-07-31T06:22:30;16.30;57.90
16118;DHT22;8163;50.118;5.342;2023-07-31T06:24:57;16.30;58.70
16118;DHT22;8163;50.118;5.342;2023-07-31T06:27:24;16.30;57.50
16118;DHT22;8163;50.118;5.342;2023-07-31T06:29:51;16.30;55.50
16118;DHT22;8163;50.118;5.342;2023-07-31T06:32:18;16.30;52.50
16118;DHT22;8163;50.118;5.342;2023-07-31T06:34:45;16.30;50.40
16118;DHT22;8163;50.118;5.342;2023-07-31T06:37:14;16.40;50.40
16118;DHT22;8163;50.118;5.342;2023-07-31T06:39:41;16.40;50.30
16118;DHT22;8163;50.118;5.342;2023-07-31T06:42:08;16.50;52.40
16118;DHT22;8163;50.118;5.342;2023-07-31T06:44:35;16.60;54.20
16118;DHT22;8163;50.118;5.342;2023-07-31T06:47:02;16.70;55.90
16118;DHT22;8163;50.118;5.342;2023-07-31T06:49:29;17.00;62.70
16118;DHT22;8163;50.118;5.342;2023-07-31T06:51:56;17.30;71.70
16118;DHT22;8163;50.118;5.342;2023-07-31T06:54:24;18.00;80.90
16118;DHT22;8163;50.118;5.342;2023-07-31T06:56:51;18.20;83.40
16118;DHT22;8163;50.118;5.342;2023-07-31T06:59:18;18.00;79.10
16118;DHT22;8163;50.118;5.342;2023-07-31T07:01:45;17.90;77.40
16118;DHT22;8163;50.118;5.342;2023-07-31T07:04:13;17.70;75.50
16118;DHT22;8163;50.118;5.342;2023-07-31T07:06:40;17.50;74.40
16118;DHT22;8163;50.118;5.342;2023-07-31T07:09:07;17.30;79.20
16118;DHT22;8163;50.118;5.342;2023-07-31T07:11:36;17.30;79.40
16118;DHT22;8163;50.118;5.342;2023-07-31T07:14:04;17.10;80.10
16118;DHT22;8163;50.118;5.342;2023-07-31T07:16:31;17.10;79.50
16118;DHT22;8163;50.118;5.342;2023-07-31T07:18:58;17.00;81.40
16118;DHT22;8163;50.118;5.342;2023-07-31T07:21:25;16.90;77.70
16118;DHT22;8163;50.118;5.342;2023-07-31T07:23:52;17.00;78.70
16118;DHT22;8163;50.118;5.342;2023-07-31T07:26:19;17.00;80.00
16118;DHT22;8163;50.118;5.342;2023-07-31T07:28:47;17.10;81.50
16118;DHT22;8163;50.118;5.342;2023-07-31T07:31:14;17.10;82.70
16118;DHT22;8163;50.118;5.342;2023-07-31T07:33:41;17.10;81.80
16118;DHT22;8163;50.118;5.342;2023-07-31T07:36:08;17.10;82.20
16118;DHT22;8163;50.118;5.342;2023-07-31T07:38:35;17.00;78.60
16118;DHT22;8163;50.118;5.342;2023-07-31T07:41:04;17.00;76.70
16118;DHT22;8163;50.118;5.342;2023-07-31T07:43:31;16.90;75.20
16118;DHT22;8163;50.118;5.342;2023-07-31T07:46:00;17.00;75.50
16118;DHT22;8163;50.118;5.342;2023-07-31T07:48:27;16.90;75.30
16118;DHT22;8163;50.118;5.342;2023-07-31T07:50:53;16.90;73.80
16118;DHT22;8163;50.118;5.342;2023-07-31T07:53:21;16.90;73.20
16118;DHT22;8163;50.118;5.342;2023-07-31T07:55:48;16.90;72.90
16118;DHT22;8163;50.118;5.342;2023-07-31T07:58:14;16.90;70.40
16118;DHT22;8163;50.118;5.342;2023-07-31T08:00:41;16.80;69.80
16118;DHT22;8163;50.118;5.342;2023-07-31T08:03:10;16.80;67.80
16118;DHT22;8163;50.118;5.342;2023-07-31T08:05:36;16.80;66.20
16118;DHT22;8163;50.118;5.342;2023-07-31T08:08:04;16.70;66.00
16118;DHT22;8163;50.118;5.342;2023-07-31T08:10:30;16.80;65.20
16118;DHT22;8163;50.118;5.342;2023-07-31T08:12:57;16.80;61.60
16118;DHT22;8163;50.118;5.342;2023-07-31T08:15:26;16.80;60.50
16118;DHT22;8163;50.118;5.342;2023-07-31T08:17:52;16.70;60.30
16118;DHT22;8163;50.118;5.342;2023-07-31T08:20:21;16.80;58.30
16118;DHT22;8163;50.118;5.342;2023-07-31T08:22:48;16.80;56.60
16118;DHT22;8163;50.118;5.342;2023-07-31T08:25:15;16.70;55.90
16118;DHT22;8163;50.118;5.342;2023-07-31T08:27:43;16.70;51.20
16118;DHT22;8163;50.118;5.342;2023-07-31T08:30:11;16.70;51.10
16118;DHT22;8163;50.118;5.342;2023-07-31T08:32:37;16.70;49.00
16118;DHT22;8163;50.118;5.342;2023-07-31T08:35:05;16.60;48.10
16118;DHT22;8163;50.118;5.342;2023-07-31T08:37:33;16.60;46.20
16118;DHT22;8163;50.118;5.342;2023-07-31T08:40:00;16.60;46.20
16118;DHT22;8163;50.118;5.342;2023-07-31T08:42:27;16.60;44.70
16118;DHT22;8163;50.118;5.342;2023-07-31T08:44:55;16.60;42.20
16118;DHT22;8163;50.118;5.342;2023-07-31T08:47:25;16.60;40.50
16118;DHT22;8163;50.118;5.342;2023-07-31T08:49:53;16.60;42.40
16118;DHT22;8163;50.118;5.342;2023-07-31T08:52:21;16.60;42.70
16118;DHT22;8163;50.118;5.342;2023-07-31T08:54:49;16.70;40.70
16118;DHT22;8163;50.118;5.342;2023-07-31T08:57:17;16.70;40.80
16118;DHT22;8163;50.118;5.342;2023-07-31T08:59:44;16.70;39.20
16118;DHT22;8163;50.118;5.342;2023-07-31T09:02:13;16.70;39.20
16118;DHT22;8163;50.118;5.342;2023-07-31T09:04:41;16.80;37.20
16118;DHT22;8163;50.118;5.342;2023-07-31T09:07:09;16.80;38.90
16118;DHT22;8163;50.118;5.342;2023-07-31T09:09:38;16.70;37.80
16118;DHT22;8163;50.118;5.342;2023-07-31T09:12:07;16.80;35.90
16118;DHT22;8163;50.118;5.342;2023-07-31T09:14:35;16.80;36.80
16118;DHT22;8163;50.118;5.342;2023-07-31T09:17:04;16.80;38.30
16118;DHT22;8163;50.118;5.342;2023-07-31T09:19:34;16.90;36.30
16118;DHT22;8163;50.118;5.342;2023-07-31T09:22:03;16.70;28.40
16118;DHT22;8163;50.118;5.342;2023-07-31T09:24:32;16.60;23.20
16118;DHT22;8163;50.118;5.342;2023-07-31T09:27:00;16.40;15.40
16118;DHT22;8163;50.118;5.342;2023-07-31T09:29:29;16.40;14.10
16118;DHT22;8163;50.118;5.342;2023-07-31T09:31:56;16.30;9.70
16118;DHT22;8163;50.118;5.342;2023-07-31T09:34:29;16.30;9.40
16118;DHT22;8163;50.118;5.342;2023-07-31T09:37:02;16.50;7.90
16118;DHT22;8163;50.118;5.342;2023-07-31T09:39:29;16.70;11.90
16118;DHT22;8163;50.118;5.342;2023-07-31T09:41:57;16.80;13.90
16118;DHT22;8163;50.118;5.342;2023-07-31T09:44:38;16.90;13.90
16118;DHT22;8163;50.118;5.342;2023-07-31T09:47:07;17.00;14.00
16118;DHT22;8163;50.118;5.342;2023-07-31T09:49:47;17.10;17.70
16118;DHT22;8163;50.118;5.342;2023-07-31T09:52:14;17.30;21.50
16118;DHT22;8163;50.118;5.342;2023-07-31T09:54:41;17.30;24.50
16118;DHT22;8163;50.118;5.342;2023-07-31T09:57:08;17.30;27.50
16118;DHT22;8163;50.118;5.342;2023-07-31T09:59:37;17.30;28.90
16118;DHT22;8163;50.118;5.342;2023-07-31T10:02:07;17.20;30.40
16118;DHT22;8163;50.118;5.342;2023-07-31T10:04:36;17.20;29.90
16118;DHT22;8163;50.118;5.342;2023-07-31T10:07:04;17.40;34.40
16118;DHT22;8163;50.118;5.342;2023-07-31T10:09:32;17.40;38.80
16118;DHT22;8163;50.118;5.342;2023-07-31T10:12:00;17.40;37.30
16118;DHT22;8163;50.118;5.342;2023-07-31T10:14:30;17.20;35.20
16118;DHT22;8163;50.118;5.342;2023-07-31T10:16:59;17.20;34.70
16118;DHT22;8163;50.118;5.342;2023-07-31T10:19:26;17.10;35.00
16118;DHT22;8163;50.118;5.342;2023-07-31T10:21:54;17.00;31.80
16118;DHT22;8163;50.118;5.342;2023-07-31T10:24:24;17.00;29.70
16118;DHT22;8163;50.118;5.342;2023-07-31T11:02:33;17.60;29.00
16118;DHT22;8163;50.118;5.342;2023-07-31T11:05:07;17.60;29.30
16118;DHT22;8163;50.118;5.342;2023-07-31T11:07:47;17.60;28.40
16118;DHT22;8163;50.118;5.342;2023-07-31T11:10:17;17.60;28.80
16118;DHT22;8163;50.118;5.342;2023-07-31T11:12:45;17.70;32.10
16118;DHT22;8163;50.118;5.342;2023-07-31T11:15:13;17.70;35.90
16118;DHT22;8163;50.118;5.342;2023-07-31T11:17:41;17.60;31.60
16118;DHT22;8163;50.118;5.342;2023-07-31T11:20:09;17.40;28.20
16118;DHT22;8163;50.118;5.342;2023-07-31T11:22:36;17.30;26.30
16118;DHT22;8163;50.118;5.342;2023-07-31T11:25:04;17.20;25.40
16118;DHT22;8163;50.118;5.342;2023-07-31T11:27:31;17.10;24.60
16118;DHT22;8163;50.118;5.342;2023-07-31T11:30:06;17.20;24.60
16118;DHT22;8163;50.118;5.342;2023-07-31T11:32:33;17.30;26.30
16118;DHT22;8163;50.118;5.342;2023-07-31T11:35:01;17.40;28.20
16118;DHT22;8163;50.118;5.342;2023-07-31T11:37:41;17.40;29.90
16118;DHT22;8163;50.118;5.342;2023-07-31T11:40:10;17.40;27.00
16118;DHT22;8163;50.118;5.342;2023-07-31T11:42:37;17.50;27.90
16118;DHT22;8163;50.118;5.342;2023-07-31T11:45:07;17.60;34.10
16118;DHT22;8163;50.118;5.342;2023-07-31T11:47:35;17.60;37.30
16118;DHT22;8163;50.118;5.342;2023-07-31T11:50:06;17.60;34.40
16118;DHT22;8163;50.118;5.342;2023-07-31T11:52:38;17.80;36.20
16118;DHT22;8163;50.118;5.342;2023-07-31T11:55:09;18.10;43.40
16118;DHT22;8163;50.118;5.342;2023-07-31T11:57:38;18.40;49.50
16118;DHT22;8163;50.118;5.342;2023-07-31T12:00:08;18.60;56.60
16118;DHT22;8163;50.118;5.342;2023-07-31T12:02:36;18.90;59.70
16118;DHT22;8163;50.118;5.342;2023-07-31T12:05:10;18.80;60.60
16118;DHT22;8163;50.118;5.342;2023-07-31T12:07:48;18.80;53.90
16118;DHT22;8163;50.118;5.342;2023-07-31T12:10:30;18.80;51.40
16118;DHT22;8163;50.118;5.342;2023-07-31T12:13:02;18.70;53.40
16118;DHT22;8163;50.118;5.342;2023-07-31T12:15:35;18.60;53.90
16118;DHT22;8163;50.118;5.342;2023-07-31T12:18:10;18.60;50.60
16118;DHT22;8163;50.118;5.342;2023-07-31T12:20:42;18.40;50.10
16118;DHT22;8163;50.118;5.342;2023-07-31T12:23:17;18.30;48.20
16118;DHT22;8163;50.118;5.342;2023-07-31T12:26:00;18.40;55.00
16118;DHT22;8163;50.118;5.342;2023-07-31T12:28:27;18.60;59.00
16118;DHT22;8163;50.118;5.342;2023-07-31T12:30:57;18.70;57.10
16118;DHT22;8163;50.118;5.342;2023-07-31T12:33:30;18.60;57.00
16118;DHT22;8163;50.118;5.342;2023-07-31T12:36:00;18.40;49.90
16118;DHT22;8163;50.118;5.342;2023-07-31T12:38:28;18.20;43.20
16118;DHT22;8163;50.118;5.342;2023-07-31T12:40:56;18.10;44.30
16118;DHT22;8163;50.118;5.342;2023-07-31T12:43:23;17.90;38.50
16118;DHT22;8163;50.118;5.342;2023-07-31T12:45:50;17.90;33.70
16118;DHT22;8163;50.118;5.342;2023-07-31T12:48:17;17.70;27.60
16118;DHT22;8163;50.118;5.342;2023-07-31T12:50:44;17.50;25.80
16118;DHT22;8163;50.118;5.342;2023-07-31T12:53:14;17.40;23.30
16118;DHT22;8163;50.118;5.342;2023-07-31T12:55:41;17.30;21.30
16118;DHT22;8163;50.118;5.342;2023-07-31T12:58:08;17.20;17.30
16118;DHT22;8163;50.118;5.342;2023-07-31T13:00:35;17.20;14.90
16118;DHT22;8163;50.118;5.342;2023-07-31T13:03:03;17.10;11.70
16118;DHT22;8163;50.118;5.342;2023-07-31T13:05:30;17.10;10.50
16118;DHT22;8163;50.118;5.342;2023-07-31T13:07:57;17.10;10.50
16118;DHT22;8163;50.118;5.342;2023-07-31T13:10:25;17.00;8.70
16118;DHT22;8163;50.118;5.342;2023-07-31T13:12:54;17.00;4.70
16118;DHT22;8163;50.118;5.342;2023-07-31T13:15:23;17.10;4.50
16118;DHT22;8163;50.118;5.342;2023-07-31T13:17:51;17.30;7.00
16118;DHT22;8163;50.118;5.342;2023-07-31T13:20:18;17.40;8.20
16118;DHT22;8163;50.118;5.342;2023-07-31T13:22:45;17.40;7.80
16118;DHT22;8163;50.118;5.342;2023-07-31T13:25:12;17.40;8.50
16118;DHT22;8163;50.118;5.342;2023-07-31T13:27:41;17.60;12.30
16118;DHT22;8163;50.118;5.342;2023-07-31T13:30:09;17.70;14.30
16118;DHT22;8163;50.118;5.342;2023-07-31T13:32:36;17.70;14.50
16118;DHT22;8163;50.118;5.342;2023-07-31T13:35:05;17.80;15.70
16118;DHT22;8163;50.118;5.342;2023-07-31T13:37:34;17.80;16.60
16118;DHT22;8163;50.118;5.342;2023-07-31T13:40:01;17.80;17.70
16118;DHT22;8163;50.118;5.342;2023-07-31T13:42:30;17.70;16.10
16118;DHT22;8163;50.118;5.342;2023-07-31T13:44:58;17.60;13.50
16118;DHT22;8163;50.118;5.342;2023-07-31T13:47:25;17.60;12.20
16118;DHT22;8163;50.118;5.342;2023-07-31T13:49:52;17.50;14.20
16118;DHT22;8163;50.118;5.342;2023-07-31T13:52:19;17.50;9.60
16118;DHT22;8163;50.118;5.342;2023-07-31T13:54:47;17.50;8.60
16118;DHT22;8163;50.118;5.342;2023-07-31T13:57:13;17.40;9.20
16118;DHT22;8163;50.118;5.342;2023-07-31T13:59:41;17.40;5.10
16118;DHT22;8163;50.118;5.342;2023-07-31T14:02:09;17.30;1.00
16118;DHT22;8163;50.118;5.342;2023-07-31T14:04:36;17.20;1.00
16118;DHT22;8163;50.118;5.342;2023-07-31T14:07:04;17.20;1.00
16118;DHT22;8163;50.118;5.342;2023-07-31T14:09:31;17.20;1.00
16118;DHT22;8163;50.118;5.342;2023-07-31T14:11:58;17.20;1.00
16118;DHT22;8163;50.118;5.342;2023-07-31T14:14:26;17.20;1.00
16118;DHT22;8163;50.118;5.342;2023-07-31T14:16:55;17.20;1.00
16118;DHT22;8163;50.118;5.342;2023-07-31T14:19:26;17.10;1.00
16118;DHT22;8163;50.118;5.342;2023-07-31T14:21:53;17.00;1.00
16118;DHT22;8163;50.118;5.342;2023-07-31T14:24:20;16.90;1.00
16118;DHT22;8163;50.118;5.342;2023-07-31T14:26:47;16.80;1.00
16118;DHT22;8163;50.118;5.342;2023-07-31T14:29:15;16.70;1.00
16118;DHT22;8163;50.118;5.342;2023-07-31T14:31:42;16.70;1.00
16118;DHT22;8163;50.118;5.342;2023-07-31T14:34:10;16.60;1.00
16118;DHT22;8163;50.118;5.342;2023-07-31T14:36:39;16.60;1.00
16118;DHT22;8163;50.118;5.342;2023-07-31T14:39:06;16.60;1.00
16118;DHT22;8163;50.118;5.342;2023-07-31T14:41:36;16.60;1.00
16118;DHT22;8163;50.118;5.342;2023-07-31T14:44:03;16.50;1.00
16118;DHT22;8163;50.118;5.342;2023-07-31T14:46:30;16.50;1.00
16118;DHT22;8163;50.118;5.342;2023-07-31T14:48:57;16.40;1.00
16118;DHT22;8163;50.118;5.342;2023-07-31T14:51:25;16.40;1.00
16118;DHT22;8163;50.118;5.342;2023-07-31T14:53:54;16.30;1.00
16118;DHT22;8163;50.118;5.342;2023-07-31T14:56:21;16.30;1.00
16118;DHT22;8163;50.118;5.342;2023-07-31T14:58:48;16.30;1.00
16118;DHT22;8163;50.118;5.342;2023-07-31T15:01:15;16.30;1.00
16118;DHT22;8163;50.118;5.342;2023-07-31T15:03:42;16.30;1.00
16118;DHT22;8163;50.118;5.342;2023-07-31T15:06:09;16.30;2.20
16118;DHT22;8163;50.118;5.342;2023-07-31T15:08:38;16.30;6.50
16118;DHT22;8163;50.118;5.342;2023-07-31T15:11:09;16.30;11.60
16118;DHT22;8163;50.118;5.342;2023-07-31T15:13:38;16.20;15.10
16118;DHT22;8163;50.118;5.342;2023-07-31T15:16:05;16.20;19.10
16118;DHT22;8163;50.118;5.342;2023-07-31T15:18:32;16.20;24.00
16118;DHT22;8163;50.118;5.342;2023-07-31T15:21:00;16.20;28.50
16118;DHT22;8163;50.118;5.342;2023-07-31T15:23:27;16.20;33.50
16118;DHT22;8163;50.118;5.342;2023-07-31T15:25:54;16.20;40.90
16118;DHT22;8163;50.118;5.342;2023-07-31T15:28:23;16.20;43.90
16118;DHT22;8163;50.118;5.342;2023-07-31T15:30:50;16.20;50.50
16118;DHT22;8163;50.118;5.342;2023-07-31T15:33:17;16.20;52.20
16118;DHT22;8163;50.118;5.342;2023-07-31T15:35:46;16.20;55.50
16118;DHT22;8163;50.118;5.342;2023-07-31T15:38:13;16.10;59.40
16118;DHT22;8163;50.118;5.342;2023-07-31T15:40:40;16.10;65.00
16118;DHT22;8163;50.118;5.342;2023-07-31T15:43:07;16.20;71.30
16118;DHT22;8163;50.118;5.342;2023-07-31T15:45:36;16.20;75.20
16118;DHT22;8163;50.118;5.342;2023-07-31T15:48:03;16.10;79.70
16118;DHT22;8163;50.118;5.342;2023-07-31T15:50:31;16.10;82.70
16118;DHT22;8163;50.118;5.342;2023-07-31T15:52:58;16.10;86.90
16118;DHT22;8163;50.118;5.342;2023-07-31T15:55:25;16.10;90.20
16118;DHT22;8163;50.118;5.342;2023-07-31T15:57:53;16.10;91.30
16118;DHT22;8163;50.118;5.342;2023-07-31T16:00:20;16.10;92.60
16118;DHT22;8163;50.118;5.342;2023-07-31T16:02:49;16.00;94.10
16118;DHT22;8163;50.118;5.342;2023-07-31T16:05:16;16.00;94.80
16118;DHT22;8163;50.118;5.342;2023-07-31T16:07:43;15.90;95.90
16118;DHT22;8163;50.118;5.342;2023-07-31T16:10:10;16.00;97.40
16118;DHT22;8163;50.118;5.342;2023-07-31T16:12:37;16.00;98.60
16118;DHT22;8163;50.118;5.342;2023-07-31T16:15:05;16.00;99.40
16118;DHT22;8163;50.118;5.342;2023-07-31T16:17:32;16.00;99.90
16118;DHT22;8163;50.118;5.342;2023-07-31T16:20:01;16.00;99.90
16118;DHT22;8163;50.118;5.342;2023-07-31T16:22:31;16.00;99.90
16118;DHT22;8163;50.118;5.342;2023-07-31T16:24:59;16.00;99.90
16118;DHT22;8163;50.118;5.342;2023-07-31T16:27:27;16.00;99.90
16118;DHT22;8163;50.118;5.342;2023-07-31T16:29:55;16.00;99.90